Time;durP1;ratioP1;P1;durP2;ratioP2;P2;SDS_P1;SDS_P2;PMS_P1;PMS_P2;Temp;Humidity;BMP_temperature;BMP_pressure;BME280_temperature;BME280_humidity;BME280_pressure;Samples;Min_cycle;Max_cycle;Signal;HPM_P1;HPM_P2
2021/10/16 00:00:05;;;;;;;1.50;0.38;;;;;;;;;;4952359;28;20523;-58
2021/10/16 00:02:31;;;;;;;0.95;0.40;;;;;;;;;;4951495;28;20046;-58
2021/10/16 00:04:57;;;;;;;1.65;0.45;;;;;;;;;;4946965;28;20039;-58
2021/10/16 00:07:22;;;;;;;0.38;0.30;;;;;;;;;;4951263;28;20043;-58
2021/10/16 00:09:48;;;;;;;0.65;0.30;;;;;;;;;;4944401;28;20043;-58
2021/10/16 00:12:14;;;;;;;0.80;0.40;;;;;;;;;;4950423;28;20102;-58
2021/10/16 00:14:41;;;;;;;2.55;0.32;;;;;;;;;;4942343;28;20067;-58
2021/10/16 00:17:06;;;;;;;1.08;0.40;;;;;;;;;;4944367;28;20031;-58
2021/10/16 00:19:32;;;;;;;1.33;0.30;;;;;;;;;;4951802;28;20055;-57
2021/10/16 00:21:58;;;;;;;1.25;0.40;;;;;;;;;;4938135;28;20035;-58
2021/10/16 00:24:24;;;;;;;0.32;0.30;;;;;;;;;;4951212;28;20039;-58
2021/10/16 00:26:50;;;;;;;5.35;0.43;;;;;;;;;;4950043;28;20039;-59
2021/10/16 00:29:16;;;;;;;0.60;0.30;;;;;;;;;;4954898;28;20043;-59
2021/10/16 00:31:42;;;;;;;0.73;0.30;;;;;;;;;;4952657;28;20042;-57
2021/10/16 00:34:07;;;;;;;1.10;0.40;;;;;;;;;;4944588;28;20054;-59
2021/10/16 00:36:33;;;;;;;0.77;0.40;;;;;;;;;;4953719;28;20103;-60
2021/10/16 00:38:59;;;;;;;1.17;0.40;;;;;;;;;;4953448;28;20808;-58
2021/10/16 00:41:25;;;;;;;2.90;0.38;;;;;;;;;;4953839;28;20491;-59
2021/10/16 00:44:09;;;;;;;1.02;0.38;;;;;;;;;;4955542;28;20043;-56
2021/10/16 00:46:35;;;;;;;0.75;0.38;;;;;;;;;;4965110;28;20162;-59
2021/10/16 00:49:01;;;;;;;0.20;0.20;;;;;;;;;;4977343;28;20098;-58
2021/10/16 00:51:27;;;;;;;1.25;0.30;;;;;;;;;;4977200;28;20046;-57
2021/10/16 00:53:53;;;;;;;0.47;0.30;;;;;;;;;;4977902;28;20023;-56
2021/10/16 00:56:18;;;;;;;1.63;0.50;;;;;;;;;;4974854;28;20043;-57
2021/10/16 00:58:44;;;;;;;1.33;0.43;;;;;;;;;;4969225;28;20055;-58
2021/10/16 01:01:10;;;;;;;1.17;0.38;;;;;;;;;;4964194;28;20043;-56
2021/10/16 01:03:36;;;;;;;0.30;0.30;;;;;;;;;;4961528;28;20039;-58
2021/10/16 01:06:02;;;;;;;1.15;0.30;;;;;;;;;;4960495;28;20635;-58
2021/10/16 01:08:29;;;;;;;1.58;0.30;;;;;;;;;;4957355;28;20457;-58
2021/10/16 01:10:56;;;;;;;0.55;0.30;;;;;;;;;;4956829;28;20153;-58
2021/10/16 01:13:22;;;;;;;1.00;0.40;;;;;;;;;;4955543;28;20055;-59
2021/10/16 01:15:50;;;;;;;0.60;0.30;;;;;;;;;;4940808;28;20050;-58
2021/10/16 01:18:16;;;;;;;1.15;0.40;;;;;;;;;;4948569;28;20071;-57
2021/10/16 01:20:46;;;;;;;1.05;0.38;;;;;;;;;;4938644;28;20091;-59
2021/10/16 01:23:12;;;;;;;1.08;0.40;;;;;;;;;;4953587;28;20042;-59
2021/10/16 01:25:39;;;;;;;0.50;0.30;;;;;;;;;;4954140;28;20173;-58
2021/10/16 01:28:05;;;;;;;1.95;0.50;;;;;;;;;;4958024;28;20043;-57
2021/10/16 01:30:31;;;;;;;4.63;0.40;;;;;;;;;;4956151;28;20677;-60
2021/10/16 01:32:57;;;;;;;1.13;0.43;;;;;;;;;;4957551;28;20102;-59
2021/10/16 01:35:23;;;;;;;1.48;0.40;;;;;;;;;;4956269;28;20534;-59
2021/10/16 01:37:49;;;;;;;0.35;0.30;;;;;;;;;;4946027;28;20131;-59
2021/10/16 01:40:16;;;;;;;0.85;0.40;;;;;;;;;;4955968;28;20051;-59
2021/10/16 01:42:42;;;;;;;1.40;0.47;;;;;;;;;;4971133;28;20137;-58
2021/10/16 01:45:15;;;;;;;1.00;0.40;;;;;;;;;;4956588;28;20067;-58
2021/10/16 01:47:47;;;;;;;0.93;0.32;;;;;;;;;;4955117;28;20049;-58
2021/10/16 01:50:13;;;;;;;0.77;0.33;;;;;;;;;;4956745;28;20031;-59
2021/10/16 01:52:39;;;;;;;1.52;0.43;;;;;;;;;;4956005;28;20335;-58
2021/10/16 01:55:05;;;;;;;1.25;0.43;;;;;;;;;;4957400;28;20431;-59
2021/10/16 01:57:31;;;;;;;1.23;0.50;;;;;;;;;;4955194;28;20043;-58
2021/10/16 01:59:57;;;;;;;1.92;0.38;;;;;;;;;;4956057;28;20791;-59
2021/10/16 02:02:23;;;;;;;1.45;0.40;;;;;;;;;;4953389;28;20487;-56
2021/10/16 02:04:49;;;;;;;0.65;0.30;;;;;;;;;;4950416;28;20047;-59
2021/10/16 02:07:14;;;;;;;0.80;0.30;;;;;;;;;;4954734;28;20039;-61
2021/10/16 02:09:40;;;;;;;1.35;0.43;;;;;;;;;;4952282;28;20066;-60
2021/10/16 02:12:06;;;;;;;0.52;0.30;;;;;;;;;;4969997;28;21547;-57
2021/10/16 02:14:32;;;;;;;0.93;0.40;;;;;;;;;;4950708;28;20961;-57
2021/10/16 02:16:58;;;;;;;0.35;0.30;;;;;;;;;;4950251;28;20054;-59
2021/10/16 02:19:24;;;;;;;1.05;0.40;;;;;;;;;;4945652;28;20069;-59
2021/10/16 02:21:52;;;;;;;0.82;0.40;;;;;;;;;;4949235;28;20051;-62
2021/10/16 02:24:18;;;;;;;1.27;0.40;;;;;;;;;;4944016;28;20045;-58
2021/10/16 02:26:44;;;;;;;5.03;0.50;;;;;;;;;;4953903;28;20047;-59
2021/10/16 02:29:10;;;;;;;0.98;0.30;;;;;;;;;;4969639;28;20122;-57
2021/10/16 02:31:35;;;;;;;1.77;0.63;;;;;;;;;;4953650;28;20057;-58
2021/10/16 02:34:01;;;;;;;4.30;0.43;;;;;;;;;;4955323;28;20063;-59
2021/10/16 02:36:27;;;;;;;0.80;0.40;;;;;;;;;;4955664;28;20460;-57
2021/10/16 02:38:53;;;;;;;0.90;0.40;;;;;;;;;;4957234;28;20073;-57
2021/10/16 02:41:19;;;;;;;1.20;0.40;;;;;;;;;;4952906;28;20046;-57
2021/10/16 02:43:44;;;;;;;1.67;0.50;;;;;;;;;;4942706;28;20043;-59
2021/10/16 02:46:10;;;;;;;0.98;0.50;;;;;;;;;;4960373;28;20043;-59
2021/10/16 02:48:36;;;;;;;0.90;0.40;;;;;;;;;;4954625;28;20046;-57
2021/10/16 02:51:02;;;;;;;1.08;0.40;;;;;;;;;;4954391;28;20150;-59
2021/10/16 02:53:28;;;;;;;2.58;0.50;;;;;;;;;;4951340;28;20494;-58
2021/10/16 02:55:54;;;;;;;1.52;0.50;;;;;;;;;;4952271;28;20113;-58
2021/10/16 02:58:20;;;;;;;2.22;0.40;;;;;;;;;;4950978;28;20066;-57
2021/10/16 03:00:46;;;;;;;0.90;0.38;;;;;;;;;;4954423;28;20910;-58
2021/10/16 03:03:11;;;;;;;0.75;0.40;;;;;;;;;;4954909;28;20222;-59
2021/10/16 03:05:37;;;;;;;1.10;0.40;;;;;;;;;;4951708;28;20082;-57
2021/10/16 03:08:03;;;;;;;1.27;0.50;;;;;;;;;;4955418;28;20755;-60
2021/10/16 03:10:29;;;;;;;1.20;0.50;;;;;;;;;;4955768;28;20055;-60
2021/10/16 03:12:55;;;;;;;1.83;0.50;;;;;;;;;;4971556;28;21033;-59
2021/10/16 03:15:21;;;;;;;0.80;0.40;;;;;;;;;;4953465;28;20090;-59
2021/10/16 03:17:46;;;;;;;0.68;0.40;;;;;;;;;;4954209;28;20408;-60
2021/10/16 03:20:12;;;;;;;0.95;0.50;;;;;;;;;;4955104;28;20666;-60
2021/10/16 03:22:38;;;;;;;1.65;0.40;;;;;;;;;;4955409;28;20043;-59
2021/10/16 03:25:04;;;;;;;2.30;0.60;;;;;;;;;;4955539;28;20129;-60
2021/10/16 03:27:30;;;;;;;0.70;0.40;;;;;;;;;;4953489;28;20046;-61
2021/10/16 03:29:56;;;;;;;0.93;0.40;;;;;;;;;;4953927;28;20034;-60
2021/10/16 03:32:22;;;;;;;0.55;0.30;;;;;;;;;;4952729;28;20054;-59
2021/10/16 03:34:48;;;;;;;0.98;0.40;;;;;;;;;;4952107;28;20392;-58
2021/10/16 03:37:13;;;;;;;0.77;0.40;;;;;;;;;;4954161;28;21845;-60
2021/10/16 03:39:39;;;;;;;1.10;0.40;;;;;;;;;;4952843;28;20057;-60
2021/10/16 03:42:05;;;;;;;0.70;0.40;;;;;;;;;;4952393;28;20042;-60
2021/10/16 03:44:31;;;;;;;1.13;0.50;;;;;;;;;;4953674;28;20046;-58
2021/10/16 03:46:57;;;;;;;0.63;0.30;;;;;;;;;;4951577;28;20444;-60
2021/10/16 03:49:23;;;;;;;0.73;0.40;;;;;;;;;;4952568;28;20133;-59
2021/10/16 03:51:49;;;;;;;3.50;0.70;;;;;;;;;;4953593;28;20573;-58
2021/10/16 03:54:14;;;;;;;0.80;0.40;;;;;;;;;;4967805;28;20042;-61
2021/10/16 03:56:40;;;;;;;0.57;0.30;;;;;;;;;;4953421;28;20042;-60
2021/10/16 03:59:06;;;;;;;3.75;0.40;;;;;;;;;;4953428;28;20853;-57
2021/10/16 04:01:32;;;;;;;0.57;0.40;;;;;;;;;;4951790;28;20039;-57
2021/10/16 04:03:58;;;;;;;0.30;0.30;;;;;;;;;;4952627;28;20060;-54
2021/10/16 04:06:23;;;;;;;0.95;0.40;;;;;;;;;;4952751;28;20105;-59
2021/10/16 04:08:49;;;;;;;1.25;0.40;;;;;;;;;;4956025;28;20207;-56
2021/10/16 04:11:15;;;;;;;0.88;0.40;;;;;;;;;;4957039;28;20674;-57
2021/10/16 04:13:41;;;;;;;0.30;0.30;;;;;;;;;;4956598;28;20050;-58
2021/10/16 04:16:07;;;;;;;0.47;0.38;;;;;;;;;;4956920;28;20039;-57
2021/10/16 04:18:33;;;;;;;4.05;0.50;;;;;;;;;;4956516;28;20137;-57
2021/10/16 04:20:58;;;;;;;0.88;0.35;;;;;;;;;;4956710;28;20577;-60
2021/10/16 04:23:24;;;;;;;0.95;0.40;;;;;;;;;;4954071;28;20050;-60
2021/10/16 04:25:50;;;;;;;0.38;0.35;;;;;;;;;;4953708;28;20165;-58
2021/10/16 04:28:16;;;;;;;0.70;0.38;;;;;;;;;;4955510;28;21770;-58
2021/10/16 04:30:42;;;;;;;0.30;0.30;;;;;;;;;;4954247;28;20042;-57
2021/10/16 04:33:07;;;;;;;0.55;0.30;;;;;;;;;;4961717;28;20046;-60
2021/10/16 04:35:33;;;;;;;0.32;0.30;;;;;;;;;;4961925;28;20043;-58
2021/10/16 04:37:59;;;;;;;1.63;0.50;;;;;;;;;;4963497;28;20580;-60
2021/10/16 04:40:26;;;;;;;0.35;0.30;;;;;;;;;;4960845;28;20786;-57
2021/10/16 04:42:53;;;;;;;0.70;0.30;;;;;;;;;;4959394;28;20039;-60
2021/10/16 04:45:20;;;;;;;1.17;0.40;;;;;;;;;;4959489;28;20039;-59
2021/10/16 04:47:46;;;;;;;0.30;0.30;;;;;;;;;;4960823;28;20034;-58
2021/10/16 04:50:12;;;;;;;0.65;0.40;;;;;;;;;;4961190;28;20050;-57
2021/10/16 04:52:39;;;;;;;0.60;0.38;;;;;;;;;;4959860;28;20521;-60
2021/10/16 04:55:05;;;;;;;0.57;0.38;;;;;;;;;;4966958;28;20030;-59
2021/10/16 04:57:31;;;;;;;1.02;0.35;;;;;;;;;;4960422;28;20047;-59
2021/10/16 04:59:57;;;;;;;0.30;0.30;;;;;;;;;;4960740;28;21673;-58
2021/10/16 05:02:26;;;;;;;0.55;0.30;;;;;;;;;;4957471;28;20562;-57
2021/10/16 05:04:52;;;;;;;1.90;0.50;;;;;;;;;;4957646;28;20135;-57
2021/10/16 05:07:18;;;;;;;0.20;0.20;;;;;;;;;;4957159;28;20046;-60
2021/10/16 05:09:45;;;;;;;0.30;0.30;;;;;;;;;;4958465;28;20043;-59
2021/10/16 05:12:11;;;;;;;0.22;0.20;;;;;;;;;;4958200;28;20043;-59
2021/10/16 05:14:37;;;;;;;0.43;0.30;;;;;;;;;;4961759;28;20035;-58
2021/10/16 05:17:03;;;;;;;1.75;0.30;;;;;;;;;;4956217;28;20077;-59
2021/10/16 05:19:30;;;;;;;0.30;0.30;;;;;;;;;;4958734;28;20453;-59
2021/10/16 05:21:56;;;;;;;0.52;0.30;;;;;;;;;;4960640;28;20043;-59
2021/10/16 05:24:22;;;;;;;1.98;0.43;;;;;;;;;;4955949;28;20077;-58
2021/10/16 05:26:47;;;;;;;0.50;0.40;;;;;;;;;;4975064;28;20110;-59
2021/10/16 05:29:13;;;;;;;0.30;0.30;;;;;;;;;;4960131;28;20499;-59
2021/10/16 05:31:39;;;;;;;0.30;0.30;;;;;;;;;;4959597;28;20035;-58
2021/10/16 05:34:05;;;;;;;0.20;0.20;;;;;;;;;;4961282;28;20039;-57
2021/10/16 05:36:31;;;;;;;0.52;0.30;;;;;;;;;;4958687;28;20039;-59
2021/10/16 05:38:57;;;;;;;0.80;0.40;;;;;;;;;;4959836;28;20137;-59
2021/10/16 05:41:22;;;;;;;1.25;0.40;;;;;;;;;;4958231;28;20047;-59
2021/10/16 05:43:48;;;;;;;0.63;0.30;;;;;;;;;;4955750;28;20066;-59
2021/10/16 05:46:14;;;;;;;1.20;0.40;;;;;;;;;;4955375;28;20196;-57
2021/10/16 05:48:40;;;;;;;1.40;0.40;;;;;;;;;;4961949;28;20039;-59
2021/10/16 05:51:06;;;;;;;0.30;0.30;;;;;;;;;;4958350;28;20043;-58
2021/10/16 05:53:32;;;;;;;0.30;0.30;;;;;;;;;;4956088;28;21052;-58
2021/10/16 05:55:58;;;;;;;1.73;0.38;;;;;;;;;;4959204;28;20041;-59
2021/10/16 05:58:25;;;;;;;1.05;0.32;;;;;;;;;;4961760;28;20043;-59
2021/10/16 06:00:51;;;;;;;0.85;0.40;;;;;;;;;;4958838;28;20045;-61
2021/10/16 06:03:17;;;;;;;0.80;0.40;;;;;;;;;;4960032;28;20399;-61
2021/10/16 06:05:43;;;;;;;0.52;0.40;;;;;;;;;;4960517;28;20101;-60
2021/10/16 06:08:09;;;;;;;0.68;0.30;;;;;;;;;;4958649;28;20074;-59
2021/10/16 06:10:35;;;;;;;0.47;0.40;;;;;;;;;;4956134;28;20091;-59
2021/10/16 06:13:01;;;;;;;0.45;0.32;;;;;;;;;;4959754;28;20066;-60
2021/10/16 06:15:27;;;;;;;0.32;0.30;;;;;;;;;;4948652;28;20113;-58
2021/10/16 06:17:53;;;;;;;0.65;0.35;;;;;;;;;;4956828;28;20500;-59
2021/10/16 06:20:19;;;;;;;3.83;0.50;;;;;;;;;;4957320;28;20055;-60
2021/10/16 06:22:44;;;;;;;1.23;0.40;;;;;;;;;;4963337;28;20054;-59
2021/10/16 06:25:10;;;;;;;0.82;0.40;;;;;;;;;;4968262;28;21069;-58
2021/10/16 06:27:36;;;;;;;0.47;0.30;;;;;;;;;;4984090;28;20054;-60
2021/10/16 06:30:03;;;;;;;0.50;0.30;;;;;;;;;;4985895;28;20042;-59
2021/10/16 06:32:29;;;;;;;0.52;0.30;;;;;;;;;;4984578;28;20047;-59
2021/10/16 06:34:55;;;;;;;1.25;0.40;;;;;;;;;;4987534;28;20034;-59
2021/10/16 06:37:21;;;;;;;1.13;0.40;;;;;;;;;;4998486;28;20113;-60
2021/10/16 06:39:47;;;;;;;0.40;0.40;;;;;;;;;;4986206;28;20049;-59
2021/10/16 06:42:14;;;;;;;0.40;0.30;;;;;;;;;;4988933;28;20392;-59
2021/10/16 06:44:40;;;;;;;0.60;0.30;;;;;;;;;;4961262;28;20046;-59
2021/10/16 06:47:06;;;;;;;0.30;0.30;;;;;;;;;;4960586;28;20046;-59
2021/10/16 06:49:31;;;;;;;0.40;0.30;;;;;;;;;;4959577;28;20062;-59
2021/10/16 06:51:58;;;;;;;0.38;0.30;;;;;;;;;;4957886;28;20047;-58
2021/10/16 06:54:24;;;;;;;0.85;0.40;;;;;;;;;;4955918;28;20047;-60
2021/10/16 06:56:50;;;;;;;1.48;0.50;;;;;;;;;;4955134;28;20070;-60
2021/10/16 06:59:15;;;;;;;0.75;0.35;;;;;;;;;;4955973;28;20058;-59
2021/10/16 07:01:41;;;;;;;0.40;0.40;;;;;;;;;;4953670;28;20062;-57
2021/10/16 07:04:07;;;;;;;0.45;0.40;;;;;;;;;;4951406;28;20051;-60
2021/10/16 07:06:33;;;;;;;0.40;0.30;;;;;;;;;;4951514;28;20038;-58
2021/10/16 07:08:59;;;;;;;0.43;0.40;;;;;;;;;;4950856;28;20049;-57
2021/10/16 07:11:25;;;;;;;0.73;0.40;;;;;;;;;;4950941;28;20043;-60
2021/10/16 07:13:51;;;;;;;0.57;0.32;;;;;;;;;;4954214;28;20496;-59
2021/10/16 07:16:17;;;;;;;0.88;0.38;;;;;;;;;;4953797;28;20468;-58
2021/10/16 07:18:43;;;;;;;0.95;0.40;;;;;;;;;;4953671;28;20074;-59
2021/10/16 07:21:09;;;;;;;0.40;0.38;;;;;;;;;;4953568;28;20083;-59
2021/10/16 07:23:35;;;;;;;0.52;0.30;;;;;;;;;;4951777;28;20388;-59
2021/10/16 07:26:00;;;;;;;0.50;0.30;;;;;;;;;;4968693;28;20061;-59
2021/10/16 07:28:26;;;;;;;4.65;0.50;;;;;;;;;;4952748;28;20039;-59
2021/10/16 07:30:52;;;;;;;0.55;0.30;;;;;;;;;;4954674;28;20054;-58
2021/10/16 07:33:18;;;;;;;0.65;0.32;;;;;;;;;;4948082;28;20035;-58
2021/10/16 07:35:44;;;;;;;0.40;0.30;;;;;;;;;;4956810;28;20043;-57
2021/10/16 07:38:12;;;;;;;0.43;0.30;;;;;;;;;;4955445;28;20070;-58
2021/10/16 07:40:38;;;;;;;1.77;0.50;;;;;;;;;;4955307;28;20047;-60
2021/10/16 07:43:04;;;;;;;1.40;0.35;;;;;;;;;;4955737;28;20038;-59
2021/10/16 07:45:30;;;;;;;0.65;0.40;;;;;;;;;;4952145;28;20049;-58
2021/10/16 07:47:55;;;;;;;1.33;0.40;;;;;;;;;;4955189;28;20218;-59
2021/10/16 07:50:21;;;;;;;0.73;0.40;;;;;;;;;;4954111;28;20042;-57
2021/10/16 07:52:47;;;;;;;1.35;0.40;;;;;;;;;;4935101;28;20046;-59
2021/10/16 07:55:13;;;;;;;0.93;0.45;;;;;;;;;;4953814;28;20031;-60
2021/10/16 07:57:39;;;;;;;1.73;0.50;;;;;;;;;;4955018;28;20597;-60
2021/10/16 08:00:06;;;;;;;1.33;0.30;;;;;;;;;;4957026;28;20055;-59
2021/10/16 08:02:31;;;;;;;1.00;0.43;;;;;;;;;;4955318;28;20054;-57
2021/10/16 08:04:59;;;;;;;1.20;0.40;;;;;;;;;;4956161;28;20054;-58
2021/10/16 08:07:25;;;;;;;1.00;0.40;;;;;;;;;;4945877;28;20388;-59
2021/10/16 08:09:51;;;;;;;5.03;0.50;;;;;;;;;;4968046;28;20038;-58
2021/10/16 08:12:17;;;;;;;0.88;0.40;;;;;;;;;;4955371;28;20057;-58
2021/10/16 08:14:43;;;;;;;1.75;0.40;;;;;;;;;;4954169;28;20137;-59
2021/10/16 08:17:09;;;;;;;0.25;0.22;;;;;;;;;;4956614;28;20441;-59
2021/10/16 08:19:35;;;;;;;0.60;0.30;;;;;;;;;;4957078;28;20054;-59
2021/10/16 08:22:01;;;;;;;0.40;0.32;;;;;;;;;;4950440;28;22093;-57
2021/10/16 08:24:27;;;;;;;0.68;0.40;;;;;;;;;;4947115;28;20046;-59
2021/10/16 08:26:53;;;;;;;0.90;0.30;;;;;;;;;;4947955;28;20126;-59
2021/10/16 08:29:19;;;;;;;1.75;0.40;;;;;;;;;;4948871;28;20138;-59
2021/10/16 08:31:45;;;;;;;0.32;0.30;;;;;;;;;;4955337;28;20043;-59
2021/10/16 08:34:10;;;;;;;0.52;0.40;;;;;;;;;;4955957;28;20121;-59
2021/10/16 08:36:38;;;;;;;1.40;0.47;;;;;;;;;;4955797;28;20085;-59
2021/10/16 08:39:04;;;;;;;0.93;0.43;;;;;;;;;;4953403;28;20046;-58
2021/10/16 08:41:30;;;;;;;0.68;0.35;;;;;;;;;;4955582;28;20039;-59
2021/10/16 08:43:56;;;;;;;0.80;0.50;;;;;;;;;;4953076;28;20098;-58
2021/10/16 08:46:23;;;;;;;0.68;0.40;;;;;;;;;;4953725;28;20039;-58
2021/10/16 08:48:49;;;;;;;1.20;0.43;;;;;;;;;;4952900;28;20034;-60
2021/10/16 08:51:15;;;;;;;5.18;0.52;;;;;;;;;;4953339;28;20081;-58
2021/10/16 08:53:41;;;;;;;0.50;0.40;;;;;;;;;;4950812;28;20049;-58
2021/10/16 08:56:07;;;;;;;1.45;0.50;;;;;;;;;;4947408;28;20071;-59
2021/10/16 08:58:33;;;;;;;2.30;0.50;;;;;;;;;;4953780;28;20083;-60
2021/10/16 09:01:03;;;;;;;1.50;0.50;;;;;;;;;;4969345;28;20039;-61
2021/10/16 09:03:35;;;;;;;1.33;0.40;;;;;;;;;;4952290;28;20534;-59
2021/10/16 09:06:01;;;;;;;3.90;0.60;;;;;;;;;;4940068;28;20055;-54
2021/10/16 09:08:31;;;;;;;0.98;0.40;;;;;;;;;;4938296;28;20436;-60
2021/10/16 09:11:19;;;;;;;2.60;0.50;;;;;;;;;;4954646;28;20134;-59
2021/10/16 09:13:49;;;;;;;0.98;0.40;;;;;;;;;;4950086;28;20053;-58
2021/10/16 09:16:29;;;;;;;1.15;0.40;;;;;;;;;;4953105;28;20138;-58
2021/10/16 09:18:56;;;;;;;0.88;0.40;;;;;;;;;;4944202;28;20058;-58
2021/10/16 09:21:24;;;;;;;1.02;0.50;;;;;;;;;;4955275;28;20411;-57
2021/10/16 09:24:00;;;;;;;1.00;0.40;;;;;;;;;;4951565;28;20043;-57
2021/10/16 09:26:26;;;;;;;0.82;0.40;;;;;;;;;;4956719;28;20098;-59
2021/10/16 09:28:59;;;;;;;1.77;0.60;;;;;;;;;;4944550;28;20586;-57
2021/10/16 09:31:30;;;;;;;1.38;0.50;;;;;;;;;;4947510;28;20035;-57
2021/10/16 09:33:56;;;;;;;0.70;0.47;;;;;;;;;;4950999;28;20555;-58
2021/10/16 09:36:22;;;;;;;0.80;0.40;;;;;;;;;;4966678;28;20050;-57
2021/10/16 09:38:49;;;;;;;1.58;0.60;;;;;;;;;;4956159;28;21028;-58
2021/10/16 09:41:25;;;;;;;1.67;0.52;;;;;;;;;;4958132;28;20070;-59
2021/10/16 09:43:51;;;;;;;1.67;0.60;;;;;;;;;;4954590;28;20050;-56
2021/10/16 09:46:18;;;;;;;3.85;0.70;;;;;;;;;;4956291;28;20035;-59
2021/10/16 09:48:47;;;;;;;1.13;0.47;;;;;;;;;;4955589;28;20039;-59
2021/10/16 09:51:14;;;;;;;1.48;0.50;;;;;;;;;;4954400;28;20070;-56
2021/10/16 09:53:48;;;;;;;1.58;0.50;;;;;;;;;;4968700;28;20049;-59
2021/10/16 09:56:14;;;;;;;1.27;0.50;;;;;;;;;;4956136;28;20050;-60
2021/10/16 09:58:41;;;;;;;1.15;0.50;;;;;;;;;;4956878;28;20054;-58
2021/10/16 10:01:07;;;;;;;1.05;0.50;;;;;;;;;;4957625;28;20052;-57
2021/10/16 10:03:35;;;;;;;1.48;0.50;;;;;;;;;;4957026;28;20081;-57
2021/10/16 10:06:01;;;;;;;2.10;0.65;;;;;;;;;;4958337;28;20070;-60
2021/10/16 10:08:27;;;;;;;1.50;0.50;;;;;;;;;;4959959;28;20164;-59
2021/10/16 10:10:53;;;;;;;1.25;0.50;;;;;;;;;;4958500;28;20042;-59
2021/10/16 10:13:19;;;;;;;2.38;0.60;;;;;;;;;;4951409;28;20046;-59
2021/10/16 10:15:45;;;;;;;1.02;0.40;;;;;;;;;;4957939;28;20090;-59
2021/10/16 10:20:56;;;;;;;1.40;0.50;;;;;;;;;;4955622;28;20128;-58
2021/10/16 10:23:23;;;;;;;2.33;0.50;;;;;;;;;;4947183;28;20796;-58
2021/10/16 10:25:49;;;;;;;1.60;0.52;;;;;;;;;;4953150;28;20055;-59
2021/10/16 10:28:15;;;;;;;1.10;0.43;;;;;;;;;;4948039;28;20490;-58
2021/10/16 10:30:42;;;;;;;1.10;0.47;;;;;;;;;;4953381;28;20203;-58
2021/10/16 10:33:19;;;;;;;0.98;0.40;;;;;;;;;;4953880;28;20738;-58
2021/10/16 10:36:03;;;;;;;4.68;0.52;;;;;;;;;;4953647;28;20528;-61
2021/10/16 10:38:33;;;;;;;0.65;0.35;;;;;;;;;;4951793;28;20043;-58
2021/10/16 10:41:18;;;;;;;1.73;0.40;;;;;;;;;;4953898;28;20031;-59
2021/10/16 10:43:44;;;;;;;1.40;0.40;;;;;;;;;;4951918;28;20043;-58
2021/10/16 10:46:13;;;;;;;1.13;0.50;;;;;;;;;;4952593;28;20059;-56
2021/10/16 10:48:43;;;;;;;1.85;0.50;;;;;;;;;;4970174;28;20117;-60
2021/10/16 10:51:09;;;;;;;6.38;0.73;;;;;;;;;;4953499;28;20042;-59
2021/10/16 10:53:37;;;;;;;0.93;0.40;;;;;;;;;;4952938;28;20046;-59
2021/10/16 10:56:04;;;;;;;1.92;0.50;;;;;;;;;;4957179;28;21911;-57
2021/10/16 10:58:48;;;;;;;1.30;0.40;;;;;;;;;;4961306;28;20710;-59
2021/10/16 11:01:33;;;;;;;0.98;0.40;;;;;;;;;;4968585;28;20491;-59
2021/10/16 11:04:02;;;;;;;1.33;0.43;;;;;;;;;;4953683;28;20039;-59
2021/10/16 11:06:28;;;;;;;1.52;0.50;;;;;;;;;;4953434;28;20058;-58
2021/10/16 11:08:53;;;;;;;0.82;0.43;;;;;;;;;;4953652;28;20039;-59
2021/10/16 11:11:19;;;;;;;0.68;0.40;;;;;;;;;;4952791;28;20102;-58
2021/10/16 11:13:45;;;;;;;0.88;0.40;;;;;;;;;;4944813;28;20058;-58
2021/10/16 11:16:11;;;;;;;0.80;0.40;;;;;;;;;;4939630;28;20047;-58
2021/10/16 11:18:38;;;;;;;1.23;0.50;;;;;;;;;;4951899;28;20078;-58
2021/10/16 11:21:06;;;;;;;1.05;0.40;;;;;;;;;;4946808;28;20047;-58
2021/10/16 11:23:31;;;;;;;1.25;0.47;;;;;;;;;;4954314;28;20039;-59
2021/10/16 11:25:58;;;;;;;1.05;0.50;;;;;;;;;;4956968;28;20705;-58
2021/10/16 11:28:25;;;;;;;0.43;0.30;;;;;;;;;;4944153;28;20046;-59
2021/10/16 11:30:52;;;;;;;1.23;0.43;;;;;;;;;;4954076;28;20035;-57
2021/10/16 11:33:19;;;;;;;2.80;0.50;;;;;;;;;;4952360;28;20491;-58
2021/10/16 11:35:46;;;;;;;0.70;0.40;;;;;;;;;;4954854;28;20043;-57
2021/10/16 11:38:13;;;;;;;0.85;0.40;;;;;;;;;;4952815;28;20186;-58
2021/10/16 11:40:40;;;;;;;0.30;0.30;;;;;;;;;;4951596;28;20112;-57
2021/10/16 11:43:10;;;;;;;1.30;0.50;;;;;;;;;;4955057;28;20054;-59
2021/10/16 11:45:37;;;;;;;1.67;0.50;;;;;;;;;;4954410;28;20511;-58
2021/10/16 11:48:05;;;;;;;1.17;0.40;;;;;;;;;;4952305;28;20506;-58
2021/10/16 11:50:35;;;;;;;0.88;0.40;;;;;;;;;;4946411;28;20039;-57
2021/10/16 11:53:34;;;;;;;1.00;0.40;;;;;;;;;;4954356;28;20098;-59
2021/10/16 11:56:00;;;;;;;2.40;0.40;;;;;;;;;;4954628;28;20041;-58
2021/10/16 11:58:27;;;;;;;0.28;0.28;;;;;;;;;;4950787;28;20515;-59
2021/10/16 12:00:54;;;;;;;1.30;0.45;;;;;;;;;;4952812;28;20039;-59
2021/10/16 12:03:27;;;;;;;4.25;0.47;;;;;;;;;;4953369;28;20130;-58
2021/10/16 12:05:55;;;;;;;0.38;0.32;;;;;;;;;;4954137;28;20514;-58
2021/10/16 12:08:26;;;;;;;0.55;0.40;;;;;;;;;;4950626;28;20134;-59
2021/10/16 12:10:55;;;;;;;1.33;0.45;;;;;;;;;;4954165;28;20045;-58
2021/10/16 12:13:30;;;;;;;2.15;0.50;;;;;;;;;;4952581;28;20601;-54
2021/10/16 12:15:56;;;;;;;0.47;0.40;;;;;;;;;;4953178;28;20050;-58
2021/10/16 12:18:22;;;;;;;1.10;0.50;;;;;;;;;;4949919;28;20088;-58
2021/10/16 12:20:50;;;;;;;1.55;0.50;;;;;;;;;;4936372;28;20039;-59
2021/10/16 12:23:16;;;;;;;0.68;0.40;;;;;;;;;;4936819;28;20047;-58
2021/10/16 12:25:42;;;;;;;0.98;0.40;;;;;;;;;;4947390;28;20027;-58
2021/10/16 12:28:08;;;;;;;0.85;0.47;;;;;;;;;;4951331;28;20070;-58
2021/10/16 12:30:34;;;;;;;0.65;0.35;;;;;;;;;;4956460;28;20591;-58
2021/10/16 12:33:03;;;;;;;0.98;0.40;;;;;;;;;;4971690;28;20481;-55
2021/10/16 12:35:29;;;;;;;1.05;0.47;;;;;;;;;;4978078;28;20022;-59
2021/10/16 12:37:56;;;;;;;2.10;0.57;;;;;;;;;;4980126;28;20027;-59
2021/10/16 12:40:33;;;;;;;4.25;0.55;;;;;;;;;;4982136;28;20031;-59
2021/10/16 12:42:59;;;;;;;1.10;0.43;;;;;;;;;;4973871;28;20046;-58
2021/10/16 12:45:34;;;;;;;1.02;0.40;;;;;;;;;;4965207;28;20035;-58
2021/10/16 12:48:20;;;;;;;6.13;0.55;;;;;;;;;;4958750;28;20082;-57
2021/10/16 12:50:53;;;;;;;1.27;0.50;;;;;;;;;;4956817;28;20334;-59
2021/10/16 12:53:18;;;;;;;;;;;;;;;;;;4959083;28;20035;-58
2021/10/16 12:55:45;;;;;;;1.52;0.60;;;;;;;;;;4959266;28;22132;-60
2021/10/16 12:58:11;;;;;;;2.33;0.60;;;;;;;;;;4956643;28;20037;-56
2021/10/16 13:00:38;;;;;;;2.42;0.60;;;;;;;;;;4955182;28;20050;-59
2021/10/16 13:03:04;;;;;;;1.65;0.60;;;;;;;;;;4955602;28;20680;-57
2021/10/16 13:05:30;;;;;;;0.57;0.40;;;;;;;;;;4954700;28;20039;-59
2021/10/16 13:08:00;;;;;;;1.60;0.50;;;;;;;;;;4954426;28;20037;-59
2021/10/16 13:10:26;;;;;;;1.63;0.57;;;;;;;;;;4955213;28;20042;-59
2021/10/16 13:12:52;;;;;;;2.25;0.60;;;;;;;;;;4948979;28;20051;-57
2021/10/16 13:15:19;;;;;;;1.65;0.60;;;;;;;;;;4954079;28;20050;-57
2021/10/16 13:17:45;;;;;;;1.88;0.60;;;;;;;;;;4948078;28;20042;-58
2021/10/16 13:20:13;;;;;;;2.72;0.52;;;;;;;;;;4957355;28;20158;-59
2021/10/16 13:22:39;;;;;;;3.10;0.60;;;;;;;;;;4955415;28;20047;-58
2021/10/16 13:25:25;;;;;;;1.67;0.50;;;;;;;;;;4950646;28;20050;-59
2021/10/16 13:27:51;;;;;;;3.15;0.50;;;;;;;;;;4950943;28;20075;-58
2021/10/16 13:30:20;;;;;;;1.75;0.55;;;;;;;;;;4951269;28;20066;-58
2021/10/16 13:32:47;;;;;;;1.45;0.50;;;;;;;;;;4950338;28;20043;-58
2021/10/16 13:35:13;;;;;;;1.10;0.50;;;;;;;;;;4950310;28;20043;-60
2021/10/16 13:37:39;;;;;;;1.33;0.50;;;;;;;;;;4949975;28;20169;-60
2021/10/16 13:40:05;;;;;;;2.75;0.70;;;;;;;;;;4951977;28;20759;-59
2021/10/16 13:42:35;;;;;;;2.53;0.70;;;;;;;;;;4950450;28;20110;-57
2021/10/16 13:45:01;;;;;;;2.13;0.60;;;;;;;;;;4951402;28;20082;-59
2021/10/16 13:47:27;;;;;;;1.60;0.50;;;;;;;;;;4951528;28;20047;-56
2021/10/16 13:49:53;;;;;;;1.88;0.50;;;;;;;;;;4952944;28;20090;-58
2021/10/16 13:52:18;;;;;;;2.13;0.60;;;;;;;;;;4951997;28;20107;-59
2021/10/16 13:54:44;;;;;;;1.67;0.60;;;;;;;;;;4943441;28;20047;-59
2021/10/16 13:57:10;;;;;;;1.63;0.60;;;;;;;;;;4950014;28;20058;-58
2021/10/16 13:59:36;;;;;;;1.83;0.60;;;;;;;;;;4952056;28;20054;-60
2021/10/16 14:02:02;;;;;;;2.80;1.00;;;;;;;;;;4954494;28;20106;-59
2021/10/16 14:04:28;;;;;;;2.13;0.60;;;;;;;;;;4954700;28;20093;-61
2021/10/16 14:06:54;;;;;;;2.55;0.50;;;;;;;;;;4952363;28;20114;-56
2021/10/16 14:09:20;;;;;;;0.80;0.40;;;;;;;;;;4941800;28;20057;-60
2021/10/16 14:11:46;;;;;;;2.75;0.60;;;;;;;;;;4963438;28;20050;-57
2021/10/16 14:14:12;;;;;;;1.90;0.55;;;;;;;;;;4974577;28;20054;-59
2021/10/16 14:16:38;;;;;;;1.55;0.60;;;;;;;;;;4981608;28;20035;-57
2021/10/16 14:19:04;;;;;;;1.73;0.60;;;;;;;;;;4980082;28;20049;-60
2021/10/16 14:21:30;;;;;;;1.60;0.50;;;;;;;;;;4981257;28;20046;-58
2021/10/16 14:23:56;;;;;;;4.35;0.60;;;;;;;;;;4980419;28;20103;-59
2021/10/16 14:26:22;;;;;;;3.10;0.60;;;;;;;;;;4970125;28;20067;-59
2021/10/16 14:28:48;;;;;;;1.42;0.50;;;;;;;;;;4960564;28;20094;-54
2021/10/16 14:31:15;;;;;;;5.28;0.70;;;;;;;;;;4958336;28;21987;-59
2021/10/16 14:33:41;;;;;;;1.65;0.57;;;;;;;;;;4961993;28;20136;-59
2021/10/16 14:36:07;;;;;;;2.10;0.60;;;;;;;;;;4962250;28;20046;-60
2021/10/16 14:38:33;;;;;;;1.60;0.50;;;;;;;;;;4957925;28;20128;-59
2021/10/16 14:40:59;;;;;;;2.40;0.70;;;;;;;;;;4960026;28;20027;-59
2021/10/16 14:43:25;;;;;;;4.75;0.60;;;;;;;;;;4957168;28;20874;-61